Time;durP1;ratioP1;P1;durP2;ratioP2;P2;SDS_P1;SDS_P2;PMS_P1;PMS_P2;Temp;Humidity;BMP_temperature;BMP_pressure;BME280_temperature;BME280_humidity;BME280_pressure;Samples;Min_cycle;Max_cycle;Signal;HPM_P1;HPM_P2
2023/09/30 00:00:13;;;;;;;10.38;5.38;;;;;;;12.16;100.00;102475.47;5110372;28;20472;-35
2023/09/30 00:02:38;;;;;;;10.20;5.60;;;;;;;12.20;100.00;102484.03;5110266;28;20034;-35
2023/09/30 00:05:04;;;;;;;8.20;5.22;;;;;;;12.23;100.00;102489.88;5110248;28;20023;-35
2023/09/30 00:07:29;;;;;;;8.10;5.57;;;;;;;12.20;100.00;102486.75;5111367;28;20440;-35
2023/09/30 00:09:55;;;;;;;8.63;4.55;;;;;;;12.21;100.00;102496.56;5101448;28;20024;-35
2023/09/30 00:12:20;;;;;;;7.90;4.40;;;;;;;12.15;100.00;102481.94;5096857;28;20037;-35
2023/09/30 00:14:48;;;;;;;6.95;4.90;;;;;;;12.19;100.00;102491.31;5096178;28;20757;-35
2023/09/30 00:17:13;;;;;;;8.30;5.13;;;;;;;12.20;100.00;102498.44;5097164;28;20028;-35
2023/09/30 00:19:39;;;;;;;10.80;5.25;;;;;;;12.22;100.00;102506.38;5097198;28;20349;-35
2023/09/30 00:22:04;;;;;;;10.93;5.07;;;;;;;12.22;100.00;102498.25;5096630;28;20028;-35
2023/09/30 00:24:29;;;;;;;10.52;5.30;;;;;;;12.20;100.00;102495.75;5096044;28;20058;-35
2023/09/30 00:26:56;;;;;;;7.50;4.63;;;;;;;12.36;100.00;102502.69;5096827;28;20037;-35
2023/09/30 00:29:21;;;;;;;8.45;5.93;;;;;;;12.18;100.00;102489.66;5096117;28;20032;-35
2023/09/30 00:31:47;;;;;;;;;;;;;;;12.35;100.00;102493.72;5096596;28;20082;-35
2023/09/30 00:34:13;;;;;;;12.02;6.10;;;;;;;12.27;100.00;102496.59;5096053;28;19915;-35
2023/09/30 00:36:38;;;;;;;10.07;5.80;;;;;;;12.19;100.00;102496.75;5095770;28;20035;-35
2023/09/30 00:39:04;;;;;;;7.40;5.35;;;;;;;12.25;100.00;102500.53;5095931;28;20028;-35
2023/09/30 00:41:29;;;;;;;8.57;5.32;;;;;;;12.28;100.00;102511.81;5095912;28;20060;-35
2023/09/30 00:43:54;;;;;;;9.63;5.65;;;;;;;12.27;100.00;102517.47;5096194;28;20052;-35
2023/09/30 00:46:31;;;;;;;13.60;6.38;;;;;;;12.17;100.00;102501.56;5095888;28;20106;-35
2023/09/30 00:48:58;;;;;;;8.70;6.35;;;;;;;12.21;100.00;102520.97;5096394;28;20031;-35
2023/09/30 00:51:25;;;;;;;10.70;5.72;;;;;;;12.25;100.00;102514.09;5095745;28;20035;-35
2023/09/30 00:53:58;;;;;;;8.95;5.57;;;;;;;12.15;100.00;102500.06;5095706;28;20032;-35
2023/09/30 00:56:27;;;;;;;9.10;5.80;;;;;;;12.17;100.00;102503.44;5095656;28;20034;-35
2023/09/30 00:58:53;;;;;;;8.10;6.47;;;;;;;12.17;100.00;102503.44;5095532;28;20044;-35
2023/09/30 01:01:20;;;;;;;6.78;4.68;;;;;;;12.19;100.00;102502.19;5095585;28;20046;-35
2023/09/30 01:03:47;;;;;;;10.13;5.80;;;;;;;12.00;100.00;102494.78;5095875;28;20089;-35
2023/09/30 01:06:12;;;;;;;10.50;5.68;;;;;;;12.05;100.00;102516.69;5095719;28;20529;-35
2023/09/30 01:08:38;;;;;;;9.57;5.93;;;;;;;11.98;100.00;102522.09;5095711;28;20035;-35
2023/09/30 01:11:04;;;;;;;8.75;6.13;;;;;;;11.88;100.00;102505.34;5095627;28;20028;-35
2023/09/30 01:13:36;;;;;;;8.00;5.75;;;;;;;12.03;100.00;102525.03;5095371;28;20487;-35
2023/09/30 01:16:11;;;;;;;9.00;5.97;;;;;;;11.98;100.00;102524.81;5094988;28;20025;-35
2023/09/30 01:18:38;;;;;;;8.60;5.60;;;;;;;11.92;100.00;102516.66;5095481;28;20030;-35
2023/09/30 01:21:05;;;;;;;9.10;5.63;;;;;;;11.91;100.00;102521.22;5094151;28;20024;-35
2023/09/30 01:23:32;;;;;;;8.25;5.85;;;;;;;11.90;100.00;102537.69;5095091;28;20036;-35
2023/09/30 01:25:58;;;;;;;7.10;5.25;;;;;;;11.92;100.00;102546.47;5095361;28;20051;-35
2023/09/30 01:28:24;;;;;;;5.90;4.70;;;;;;;11.90;100.00;102552.06;5095313;28;20081;-35
2023/09/30 01:30:51;;;;;;;7.90;5.45;;;;;;;11.81;100.00;102551.38;5094674;28;20483;-35
2023/09/30 01:33:18;;;;;;;6.95;5.45;;;;;;;11.89;100.00;102553.09;5095494;28;20020;-35
2023/09/30 01:35:44;;;;;;;7.20;6.00;;;;;;;11.88;100.00;102546.00;5094926;28;20059;-35
2023/09/30 01:38:10;;;;;;;11.13;6.32;;;;;;;11.84;100.00;102540.16;5095364;28;20222;-35
2023/09/30 01:40:37;;;;;;;9.60;6.40;;;;;;;11.98;100.00;102551.91;5094821;28;20446;-35
2023/09/30 01:43:02;;;;;;;10.68;5.95;;;;;;;12.00;100.00;102552.53;5093813;28;20046;-35
2023/09/30 01:45:28;;;;;;;9.00;6.47;;;;;;;12.09;100.00;102554.06;5095022;28;20028;-35
2023/09/30 01:47:54;;;;;;;8.57;6.82;;;;;;;12.01;100.00;102540.69;5094648;28;20032;-35
2023/09/30 01:50:19;;;;;;;9.77;7.22;;;;;;;11.97;100.00;102525.84;5094710;28;20032;-35
2023/09/30 01:52:45;;;;;;;11.68;6.95;;;;;;;12.00;100.00;102514.59;5094837;28;20024;-35
2023/09/30 01:55:11;;;;;;;8.80;6.70;;;;;;;12.10;100.00;102517.81;5094282;28;20059;-35
2023/09/30 01:57:36;;;;;;;9.70;7.13;;;;;;;12.11;100.00;102524.91;5095231;28;20048;-35
2023/09/30 02:00:02;;;;;;;10.20;7.50;;;;;;;12.08;100.00;102522.56;5094404;28;20024;-35
2023/09/30 02:02:28;;;;;;;10.77;7.72;;;;;;;12.15;100.00;102524.47;5094710;28;20032;-35
2023/09/30 02:04:53;;;;;;;9.05;6.28;;;;;;;12.17;100.00;102527.84;5095183;28;20020;-35
2023/09/30 02:07:18;;;;;;;11.57;7.30;;;;;;;12.09;100.00;102526.13;5094896;28;20088;-35
2023/09/30 02:09:44;;;;;;;10.00;7.23;;;;;;;12.17;100.00;102523.25;5094236;28;20456;-35
2023/09/30 02:12:10;;;;;;;10.40;6.72;;;;;;;12.16;100.00;102526.16;5094796;28;20266;-35
2023/09/30 02:14:35;;;;;;;10.85;7.47;;;;;;;12.15;100.00;102536.19;5094196;28;20020;-35
2023/09/30 02:17:00;;;;;;;8.85;7.07;;;;;;;12.21;100.00;102537.25;5094159;28;20115;-35
2023/09/30 02:19:27;;;;;;;13.02;7.70;;;;;;;12.17;100.00;102538.69;5094114;28;20108;-35
2023/09/30 02:21:53;;;;;;;11.68;7.43;;;;;;;12.17;100.00;102555.78;5094617;28;20099;-35
2023/09/30 02:24:18;;;;;;;9.30;6.82;;;;;;;12.09;100.00;102537.78;5093993;28;20073;-35
2023/09/30 02:26:43;;;;;;;12.07;7.35;;;;;;;12.15;100.00;102535.31;5094579;28;20376;-35
2023/09/30 02:29:09;;;;;;;13.03;7.90;;;;;;;12.10;100.00;102534.06;5093723;28;20193;-35
2023/09/30 02:31:34;;;;;;;9.17;7.10;;;;;;;12.17;100.00;102533.25;5093901;28;20261;-35
2023/09/30 02:33:59;;;;;;;11.68;7.43;;;;;;;12.13;100.00;102526.56;5093684;28;20069;-35
2023/09/30 02:36:27;;;;;;;8.60;7.03;;;;;;;12.05;100.00;102535.69;5094524;28;20384;-35
2023/09/30 02:38:52;;;;;;;11.63;7.68;;;;;;;12.01;100.00;102542.56;5094002;28;20300;-35
2023/09/30 02:41:18;;;;;;;9.95;6.28;;;;;;;11.94;100.00;102528.94;5093894;28;20460;-35
2023/09/30 02:43:44;;;;;;;9.00;6.90;;;;;;;12.00;100.00;102533.56;5093768;28;20067;-35
2023/09/30 02:46:09;;;;;;;8.20;6.68;;;;;;;12.02;100.00;102528.81;5093732;28;20111;-35
2023/09/30 02:48:35;;;;;;;11.90;6.72;;;;;;;12.03;100.00;102535.88;5093732;28;20065;-35
2023/09/30 02:51:00;;;;;;;11.70;7.13;;;;;;;12.08;100.00;102524.44;5093708;28;20035;-35
2023/09/30 02:53:25;;;;;;;8.77;6.60;;;;;;;11.92;100.00;102522.06;5094030;28;20031;-35
2023/09/30 02:55:56;;;;;;;11.40;7.57;;;;;;;11.92;100.00;102511.22;5093909;28;20142;-35
2023/09/30 02:58:21;;;;;;;10.55;7.53;;;;;;;11.96;100.00;102529.59;5093494;28;20480;-35
2023/09/30 03:00:50;;;;;;;12.52;7.63;;;;;;;12.00;100.00;102521.88;5093354;28;20033;-35
2023/09/30 03:03:15;;;;;;;11.10;7.53;;;;;;;12.05;100.00;102514.84;5093627;28;20369;-35
2023/09/30 03:05:41;;;;;;;10.23;7.37;;;;;;;12.05;100.00;102520.28;5093624;28;20035;-35
2023/09/30 03:08:06;;;;;;;10.65;7.38;;;;;;;11.96;100.00;102521.47;5093625;28;20328;-35
2023/09/30 03:10:31;;;;;;;9.32;6.65;;;;;;;12.04;100.00;102520.47;5093300;28;20492;-35
2023/09/30 03:13:01;;;;;;;7.82;5.85;;;;;;;12.18;100.00;102534.94;5093786;28;20062;-35
2023/09/30 03:15:27;;;;;;;9.40;6.90;;;;;;;12.11;100.00;102529.47;5093720;28;20032;-35
2023/09/30 03:17:53;;;;;;;9.07;6.75;;;;;;;12.16;100.00;102539.72;5093514;28;20028;-35
2023/09/30 03:20:20;;;;;;;11.23;7.22;;;;;;;12.14;100.00;102533.66;5093452;28;20060;-35
2023/09/30 03:22:48;;;;;;;10.73;7.65;;;;;;;12.09;100.00;102515.28;5093628;28;20461;-35
2023/09/30 03:25:17;;;;;;;6.93;6.22;;;;;;;12.21;100.00;102529.13;5093406;28;20024;-35
2023/09/30 03:27:48;;;;;;;8.90;7.07;;;;;;;12.11;100.00;102518.63;5093613;28;20354;-35
2023/09/30 03:30:15;;;;;;;12.57;7.53;;;;;;;12.05;100.00;102505.84;5093578;28;20380;-35
2023/09/30 03:32:42;;;;;;;8.60;6.55;;;;;;;12.10;100.00;102504.25;5093312;28;20032;-35
2023/09/30 03:35:16;;;;;;;9.00;6.97;;;;;;;12.11;100.00;102518.63;5092956;28;20040;-35
2023/09/30 03:37:42;;;;;;;10.35;6.97;;;;;;;12.02;100.00;102515.25;5094026;28;20024;-35
2023/09/30 03:40:18;;;;;;;9.73;7.60;;;;;;;11.98;100.00;102513.13;5093238;28;20028;-35
2023/09/30 03:42:43;;;;;;;10.23;7.28;;;;;;;12.08;100.00;102522.56;5093217;28;20039;-35
2023/09/30 03:45:10;;;;;;;8.52;6.82;;;;;;;12.05;100.00;102514.84;5095588;28;20020;-35
2023/09/30 03:47:37;;;;;;;7.70;6.53;;;;;;;11.95;100.00;102525.19;5097038;28;20067;-35
2023/09/30 03:50:03;;;;;;;9.27;6.60;;;;;;;11.90;100.00;102516.00;5097173;28;20028;-35
2023/09/30 03:52:29;;;;;;;11.15;7.95;;;;;;;11.94;100.00;102526.25;5097232;28;20050;-35
2023/09/30 03:54:54;;;;;;;;;;;;;;;12.03;100.00;102514.19;5097274;28;20028;-35
2023/09/30 03:57:20;;;;;;;7.78;6.20;;;;;;;11.99;100.00;102514.78;5097077;28;19920;-35
2023/09/30 03:59:48;;;;;;;8.70;7.20;;;;;;;11.85;100.00;102514.72;5097389;28;20426;-35
2023/09/30 04:02:14;;;;;;;8.30;7.22;;;;;;;11.83;100.00;102514.09;5096406;28;20031;-35
2023/09/30 04:04:40;;;;;;;9.23;7.15;;;;;;;11.79;100.00;102517.34;5096939;28;20024;-35
2023/09/30 04:07:05;;;;;;;9.68;6.63;;;;;;;11.76;100.00;102526.72;5097528;28;20028;-35
2023/09/30 04:09:32;;;;;;;10.85;7.05;;;;;;;11.81;100.00;102524.25;5097142;28;20107;-35
2023/09/30 04:11:58;;;;;;;9.98;6.47;;;;;;;11.83;100.00;102529.50;5112730;28;20038;-35
2023/09/30 04:14:24;;;;;;;12.50;7.57;;;;;;;11.72;100.00;102527.31;5096856;28;20024;-35
2023/09/30 04:16:50;;;;;;;12.63;6.82;;;;;;;11.81;100.00;102535.09;5096139;28;20047;-35
2023/09/30 04:19:16;;;;;;;11.52;7.40;;;;;;;11.82;100.00;102525.13;5096962;28;20488;-35
2023/09/30 04:21:41;;;;;;;11.50;8.13;;;;;;;11.78;100.00;102513.81;5096370;28;20031;-36
2023/09/30 04:24:07;;;;;;;11.00;7.50;;;;;;;11.84;100.00;102521.16;5096898;28;20032;-36
2023/09/30 04:26:32;;;;;;;8.45;7.47;;;;;;;11.87;100.00;102519.13;5095977;28;20032;-36
2023/09/30 04:28:58;;;;;;;8.95;8.02;;;;;;;11.82;100.00;102527.84;5095971;28;20028;-36
2023/09/30 04:31:23;;;;;;;11.32;7.40;;;;;;;11.76;100.00;102526.72;5096243;28;20032;-36
2023/09/30 04:33:51;;;;;;;10.68;7.18;;;;;;;11.69;100.00;102531.25;5095865;28;20085;-36
2023/09/30 04:36:16;;;;;;;11.38;7.03;;;;;;;11.59;100.00;102531.59;5096043;28;20030;-36
2023/09/30 04:38:43;;;;;;;8.80;6.43;;;;;;;11.68;100.00;102524.16;5096492;28;20111;-36
2023/09/30 04:41:08;;;;;;;11.23;6.72;;;;;;;11.59;100.00;102514.50;5096285;28;20031;-36
2023/09/30 04:43:34;;;;;;;8.98;6.60;;;;;;;11.56;100.00;102531.16;5096534;28;20024;-36
2023/09/30 04:46:01;;;;;;;12.88;8.05;;;;;;;11.59;100.00;102536.19;5095965;28;20114;-36
2023/09/30 04:48:26;;;;;;;9.65;7.47;;;;;;;11.63;100.00;102551.03;5096212;28;20059;-36
2023/09/30 04:50:51;;;;;;;9.55;7.82;;;;;;;11.53;100.00;102537.81;5095907;28;20468;-36
2023/09/30 04:53:18;;;;;;;9.07;6.90;;;;;;;11.59;100.00;102542.44;5095899;28;20108;-36
2023/09/30 04:55:43;;;;;;;;;;;;;;;11.64;100.00;102539.13;5096292;28;20032;-36
2023/09/30 04:58:09;;;;;;;11.07;6.95;;;;;;;11.41;100.00;102520.41;5095846;28;20363;-36
2023/09/30 05:00:34;;;;;;;11.15;7.43;;;;;;;11.53;100.00;102540.53;5095314;28;20073;-36
2023/09/30 05:03:00;;;;;;;10.35;7.72;;;;;;;11.46;100.00;102547.75;5095355;28;20024;-36
2023/09/30 05:05:26;;;;;;;12.00;7.95;;;;;;;11.52;100.00;102551.56;5095830;28;20028;-36
2023/09/30 05:07:51;;;;;;;11.15;7.85;;;;;;;11.49;100.00;102550.06;5095218;28;20042;-36
2023/09/30 05:10:17;;;;;;;10.10;7.72;;;;;;;11.45;100.00;102554.19;5095455;28;20062;-36
2023/09/30 05:12:45;;;;;;;11.40;8.52;;;;;;;11.41;100.00;102563.75;5095355;28;20032;-36
2023/09/30 05:15:15;;;;;;;13.55;8.85;;;;;;;11.40;100.00;102556.66;5095209;28;20054;-36
2023/09/30 05:17:44;;;;;;;12.82;9.50;;;;;;;11.32;100.00;102551.34;5095181;28;20039;-36
2023/09/30 05:20:12;;;;;;;10.98;8.75;;;;;;;11.26;100.00;102546.72;5094857;28;20028;-36
2023/09/30 05:22:43;;;;;;;11.85;9.20;;;;;;;11.33;100.00;102556.59;5095411;28;20028;-36
2023/09/30 05:25:09;;;;;;;12.95;9.18;;;;;;;11.30;100.00;102561.56;5095123;28;20028;-36
2023/09/30 05:27:34;;;;;;;11.18;9.07;;;;;;;11.31;100.00;102555.09;5095635;28;20080;-36
2023/09/30 05:29:59;;;;;;;13.07;9.85;;;;;;;11.26;100.00;102558.41;5095057;28;20036;-36
2023/09/30 05:32:26;;;;;;;13.45;9.00;;;;;;;11.31;100.00;102565.94;5095129;28;20028;-36
2023/09/30 05:34:53;;;;;;;13.57;9.77;;;;;;;11.24;100.00;102567.75;5095484;28;20035;-36
2023/09/30 05:37:21;;;;;;;10.13;7.45;;;;;;;11.25;100.00;102555.88;5094850;28;20035;-36
2023/09/30 05:39:48;;;;;;;11.68;8.82;;;;;;;11.30;100.00;102570.53;5094764;28;20024;-36
2023/09/30 05:42:14;;;;;;;11.90;9.65;;;;;;;11.30;100.00;102575.09;5094516;28;20490;-36
2023/09/30 05:44:40;;;;;;;13.43;9.40;;;;;;;11.36;100.00;102574.31;5094802;28;20040;-36
2023/09/30 05:47:05;;;;;;;13.60;9.45;;;;;;;11.33;100.00;102572.03;5094406;28;20028;-36
2023/09/30 05:49:30;;;;;;;15.38;9.70;;;;;;;11.29;100.00;102568.84;5095477;28;20029;-36
2023/09/30 05:51:56;;;;;;;11.27;9.30;;;;;;;11.30;100.00;102569.69;5094753;28;20027;-36
2023/09/30 05:54:22;;;;;;;16.73;10.52;;;;;;;11.37;100.00;102578.72;5094282;28;20032;-36
2023/09/30 05:56:49;;;;;;;11.93;9.70;;;;;;;11.36;100.00;102568.91;5094222;28;20024;-36
2023/09/30 05:59:14;;;;;;;11.95;9.93;;;;;;;11.40;100.00;102574.78;5095564;28;20176;-36
2023/09/30 06:01:40;;;;;;;14.68;10.98;;;;;;;11.40;100.00;102575.63;5094504;28;20097;-36
2023/09/30 06:04:06;;;;;;;13.10;9.07;;;;;;;11.48;100.00;102583.63;5094401;28;20063;-36
2023/09/30 06:06:32;;;;;;;15.25;9.85;;;;;;;11.43;100.00;102577.94;5094710;28;20051;-36
2023/09/30 06:08:58;;;;;;;12.82;9.55;;;;;;;11.45;100.00;102581.28;5093827;28;20516;-36
2023/09/30 06:11:24;;;;;;;15.68;9.40;;;;;;;11.43;100.00;102585.22;5094367;28;20028;-36
2023/09/30 06:13:52;;;;;;;;;;;;;;;11.57;100.00;102570.78;5094989;28;20046;-36
2023/09/30 06:16:18;;;;;;;11.68;8.15;;;;;;;11.56;100.00;102575.31;5093861;28;19919;-36
2023/09/30 06:18:45;;;;;;;10.65;7.50;;;;;;;11.63;100.00;102580.00;5093913;28;20020;-36
2023/09/30 06:21:11;;;;;;;13.48;8.48;;;;;;;11.56;100.00;102580.75;5093732;28;20392;-36
2023/09/30 06:23:36;;;;;;;10.10;7.72;;;;;;;11.65;100.00;102575.19;5094693;28;20027;-35
2023/09/30 06:26:04;;;;;;;10.53;8.73;;;;;;;11.58;100.00;102570.56;5094025;28;20059;-35
2023/09/30 06:28:31;;;;;;;11.95;8.93;;;;;;;11.63;100.00;102575.41;5094558;28;20032;-35
2023/09/30 06:30:57;;;;;;;13.45;8.55;;;;;;;11.64;100.00;102565.41;5093918;28;20031;-35
2023/09/30 06:33:23;;;;;;;12.48;9.25;;;;;;;11.65;100.00;102564.34;5094584;28;20032;-35
2023/09/30 06:35:52;;;;;;;14.75;9.05;;;;;;;11.67;100.00;102565.84;5093884;28;20032;-35
2023/09/30 06:38:18;;;;;;;12.77;9.20;;;;;;;11.71;100.00;102571.69;5094118;28;20020;-35
2023/09/30 06:40:47;;;;;;;13.95;9.15;;;;;;;11.76;100.00;102585.50;5093489;28;20028;-35
2023/09/30 06:43:15;;;;;;;14.48;9.48;;;;;;;11.81;100.00;102577.66;5094392;28;20046;-35
2023/09/30 06:45:44;;;;;;;14.48;9.48;;;;;;;11.80;100.00;102565.94;5094539;28;20376;-35
2023/09/30 06:48:12;;;;;;;15.07;9.20;;;;;;;11.91;100.00;102582.72;5094023;28;20093;-35
2023/09/30 06:50:40;;;;;;;14.85;9.25;;;;;;;11.99;100.00;102586.13;5093330;28;20376;-36
2023/09/30 06:53:06;;;;;;;13.65;8.68;;;;;;;11.99;100.00;102598.84;5094307;28;20032;-36
2023/09/30 06:55:31;;;;;;;14.07;9.30;;;;;;;12.11;100.00;102603.53;5093608;28;20053;-36
2023/09/30 06:57:57;;;;;;;12.80;9.05;;;;;;;12.22;100.00;102617.56;5093683;28;20043;-36
2023/09/30 07:00:22;;;;;;;12.55;8.88;;;;;;;12.27;100.00;102625.94;5093559;28;20021;-36
2023/09/30 07:02:48;;;;;;;13.57;8.85;;;;;;;12.36;100.00;102625.59;5093585;28;20102;-36
2023/09/30 07:05:14;;;;;;;13.38;8.70;;;;;;;12.49;100.00;102640.25;5093559;28;20031;-36
2023/09/30 07:07:42;;;;;;;13.32;8.10;;;;;;;12.57;100.00;102624.66;5094118;28;20047;-36
2023/09/30 07:10:08;;;;;;;13.10;8.77;;;;;;;12.63;100.00;102626.56;5093968;28;20115;-36
2023/09/30 07:12:35;;;;;;;15.68;9.50;;;;;;;12.69;100.00;102627.66;5093495;28;20075;-36
2023/09/30 07:15:04;;;;;;;14.70;8.98;;;;;;;12.71;100.00;102620.13;5093365;28;20036;-36
2023/09/30 07:17:30;;;;;;;14.23;8.77;;;;;;;12.79;100.00;102624.56;5093915;28;20035;-36
2023/09/30 07:19:56;;;;;;;15.10;9.07;;;;;;;12.83;100.00;102606.81;5095359;28;20019;-36
2023/09/30 07:22:21;;;;;;;11.93;8.82;;;;;;;12.91;100.00;102613.94;5098380;28;20035;-36
2023/09/30 07:24:46;;;;;;;16.17;9.50;;;;;;;13.04;100.00;102628.41;5097167;28;20396;-36
2023/09/30 07:27:12;;;;;;;15.07;9.27;;;;;;;13.13;100.00;102643.50;5097825;28;20246;-36
2023/09/30 07:29:37;;;;;;;18.67;10.10;;;;;;;13.21;100.00;102656.03;5097095;28;20326;-36
2023/09/30 07:32:03;;;;;;;14.35;8.82;;;;;;;13.23;100.00;102653.16;5097428;28;20253;-36
2023/09/30 07:34:28;;;;;;;;;;;;;;;13.39;100.00;102677.25;5097354;28;20046;-36
2023/09/30 07:36:53;;;;;;;13.10;8.57;;;;;;;13.35;100.00;102678.69;5096986;28;19908;-36
2023/09/30 07:39:20;;;;;;;17.67;9.70;;;;;;;13.32;100.00;102668.22;5097090;28;20297;-37
2023/09/30 07:41:45;;;;;;;15.85;9.50;;;;;;;13.42;100.00;102682.28;5097473;28;20058;-36
2023/09/30 07:44:11;;;;;;;16.55;9.20;;;;;;;13.47;100.00;102670.75;5095898;28;20031;-36
2023/09/30 07:46:37;;;;;;;17.10;9.50;;;;;;;13.62;100.00;102685.03;5097055;28;20050;-36
2023/09/30 07:49:03;;;;;;;;;;;;;;;13.75;100.00;102684.19;5098113;28;20402;-36
2023/09/30 07:51:29;;;;;;;16.30;8.68;;;;;;;13.79;100.00;102678.13;5096873;28;19915;-36
2023/09/30 07:53:55;;;;;;;20.48;9.02;;;;;;;13.88;100.00;102674.16;5097750;28;20055;-36
2023/09/30 07:56:21;;;;;;;15.85;8.90;;;;;;;13.99;100.00;102664.53;5096915;28;20056;-36
2023/09/30 07:58:48;;;;;;;14.25;8.82;;;;;;;14.08;100.00;102662.47;5097484;28;20048;-36
2023/09/30 08:01:14;;;;;;;16.83;8.73;;;;;;;14.16;100.00;102665.81;5096732;28;20085;-36
2023/09/30 08:03:40;;;;;;;16.67;8.57;;;;;;;14.22;100.00;102657.84;5097029;28;20543;-36
2023/09/30 08:06:08;;;;;;;18.02;8.55;;;;;;;14.33;100.00;102670.78;5096701;28;20028;-36
2023/09/30 08:08:34;;;;;;;14.48;8.43;;;;;;;14.42;100.00;102664.09;5096344;28;20043;-36
2023/09/30 08:11:00;;;;;;;13.73;8.15;;;;;;;14.48;100.00;102657.81;5096563;28;20035;-36
2023/09/30 08:13:25;;;;;;;19.25;9.20;;;;;;;14.52;100.00;102650.91;5096345;28;20028;-36
2023/09/30 08:15:52;;;;;;;16.80;7.85;;;;;;;14.62;100.00;102648.56;5096794;28;20031;-36
2023/09/30 08:18:18;;;;;;;18.35;8.88;;;;;;;14.65;100.00;102656.31;5096724;28;20145;-36
2023/09/30 08:20:43;;;;;;;14.25;7.70;;;;;;;14.70;100.00;102660.28;5096440;28;20486;-36
2023/09/30 08:23:09;;;;;;;15.77;7.95;;;;;;;14.71;100.00;102651.06;5096734;28;20028;-36
2023/09/30 08:25:34;;;;;;;;;;;;;;;14.85;100.00;102644.53;5096763;28;20028;-36
2023/09/30 08:28:00;;;;;;;14.00;8.00;;;;;;;14.84;100.00;102648.31;5096088;28;19911;-36
2023/09/30 08:30:25;;;;;;;14.70;8.05;;;;;;;14.89;100.00;102651.22;5095478;28;20274;-36
2023/09/30 08:32:51;;;;;;;16.27;8.70;;;;;;;14.91;100.00;102644.47;5096581;28;20028;-36
2023/09/30 08:35:16;;;;;;;;;;;;;;;15.03;100.00;102641.94;5096674;28;20024;-36
2023/09/30 08:37:42;;;;;;;16.33;8.23;;;;;;;14.93;100.00;102622.47;5096096;28;19919;-36
2023/09/30 08:40:09;;;;;;;16.10;8.25;;;;;;;15.06;100.00;102630.59;5095953;28;20020;-36
2023/09/30 08:42:35;;;;;;;16.27;7.85;;;;;;;15.09;100.00;102626.59;5096355;28;20030;-36
2023/09/30 08:45:01;;;;;;;;;;;;;;;15.29;100.00;102630.03;5096764;28;20032;-36
2023/09/30 08:47:28;;;;;;;14.45;7.50;;;;;;;15.33;100.00;102641.34;5096559;28;19953;-36
2023/09/30 08:49:57;;;;;;;12.25;7.30;;;;;;;15.39;100.00;102627.66;5095528;28;20024;-36
2023/09/30 08:52:23;;;;;;;13.75;7.22;;;;;;;15.37;100.00;102607.13;5096666;28;20031;-36
2023/09/30 08:54:48;;;;;;;19.75;7.20;;;;;;;15.62;100.00;102621.63;5095509;28;20020;-36
2023/09/30 08:57:17;;;;;;;12.60;5.70;;;;;;;15.67;100.00;102605.47;5096297;28;20039;-37
2023/09/30 08:59:43;;;;;;;12.13;5.57;;;;;;;15.81;100.00;102628.03;5096257;28;20031;-37
2023/09/30 09:02:10;;;;;;;9.48;5.88;;;;;;;15.84;100.00;102627.56;5095401;28;20028;-36
2023/09/30 09:04:36;;;;;;;11.45;5.60;;;;;;;15.89;100.00;102632.34;5095880;28;20035;-36
2023/09/30 09:07:02;;;;;;;14.65;6.20;;;;;;;15.94;100.00;102640.69;5095935;28;20038;-36
2023/09/30 09:09:28;;;;;;;;;;;;;;;16.09;100.00;102646.66;5096524;28;20032;-36
2023/09/30 09:11:53;;;;;;;10.60;5.50;;;;;;;16.00;100.00;102647.16;5095500;28;20269;-36
2023/09/30 09:14:19;;;;;;;;;;;;;;;16.20;100.00;102665.03;5095830;28;20487;-36
2023/09/30 09:16:52;;;;;;;9.07;5.10;;;;;;;16.08;100.00;102647.72;5096227;28;19962;-36
2023/09/30 09:19:20;;;;;;;12.93;6.18;;;;;;;16.23;100.00;102667.31;5095471;28;20028;-36
2023/09/30 09:22:04;;;;;;;9.43;5.18;;;;;;;16.37;100.00;102667.19;5095614;28;20028;-36
2023/09/30 09:24:31;;;;;;;8.88;5.57;;;;;;;16.36;100.00;102668.25;5095239;28;20020;-36
2023/09/30 09:27:16;;;;;;;12.02;5.93;;;;;;;16.50;100.00;102682.59;5095759;28;20036;-36
2023/09/30 09:29:42;;;;;;;12.93;5.30;;;;;;;16.52;100.00;102678.56;5095405;28;20392;-36
2023/09/30 09:32:12;;;;;;;10.65;5.40;;;;;;;16.62;100.00;102687.06;5095109;28;20034;-37
2023/09/30 09:34:39;;;;;;;11.18;5.65;;;;;;;16.66;100.00;102693.75;5094787;28;20400;-37
2023/09/30 09:37:15;;;;;;;8.52;5.07;;;;;;;16.77;100.00;102703.13;5094889;28;20483;-35
2023/09/30 09:39:52;;;;;;;11.60;5.07;;;;;;;16.83;100.00;102706.84;5094737;28;20042;-36
2023/09/30 09:42:28;;;;;;;11.63;5.50;;;;;;;16.85;100.00;102700.09;5093723;28;20093;-36
2023/09/30 09:44:59;;;;;;;9.98;5.18;;;;;;;16.97;100.00;102700.16;5094976;28;20028;-36
2023/09/30 09:47:25;;;;;;;12.68;5.63;;;;;;;17.01;100.00;102701.38;5095067;28;20410;-36
2023/09/30 09:49:51;;;;;;;;;;;;;;;17.17;100.00;102700.72;5095745;28;20085;-37
2023/09/30 09:52:18;;;;;;;12.15;5.75;;;;;;;17.21;100.00;102701.94;5094398;28;19959;-36
2023/09/30 09:54:45;;;;;;;10.13;6.18;;;;;;;17.30;100.00;102705.19;5094872;28;20052;-35
2023/09/30 09:57:11;;;;;;;12.10;6.60;;;;;;;17.37;100.00;102708.69;5094404;28;20119;-36
2023/09/30 09:59:39;;;;;;;;;;;;;;;17.54;100.00;102708.88;5094847;28;20123;-35
2023/09/30 10:02:10;;;;;;;11.85;6.07;;;;;;;17.56;100.00;102701.25;5094736;28;19912;-35
2023/09/30 10:04:37;;;;;;;12.77;5.80;;;;;;;17.55;100.00;102694.13;5094150;28;20055;-36
2023/09/30 10:07:05;;;;;;;12.63;6.03;;;;;;;17.57;100.00;102711.16;5095234;28;20102;-36
2023/09/30 10:09:34;;;;;;;11.85;5.93;;;;;;;17.60;100.00;102710.66;5094341;28;20036;-36
2023/09/30 10:12:01;;;;;;;10.23;6.00;;;;;;;17.74;100.00;102716.81;5094874;28;20032;-36
2023/09/30 10:14:33;;;;;;;11.93;6.20;;;;;;;17.77;100.00;102723.72;5093967;28;20468;-36
2023/09/30 10:16:59;;;;;;;10.93;5.60;;;;;;;17.82;100.00;102724.69;5094522;28;20516;-35
2023/09/30 10:19:25;;;;;;;;;;;;;;;18.01;100.00;102731.75;5094847;28;20111;-36
2023/09/30 10:22:27;;;;;;;11.60;6.43;;;;;;;17.93;100.00;102725.78;5094246;28;19912;-35
2023/09/30 10:24:57;;;;;;;11.75;6.20;;;;;;;18.00;100.00;102710.91;5094752;28;20028;-36
2023/09/30 10:27:32;;;;;;;11.65;6.63;;;;;;;18.10;100.00;102709.50;5094237;28;20480;-36
2023/09/30 10:30:10;;;;;;;13.85;6.45;;;;;;;18.10;100.00;102704.84;5094722;28;20031;-36
2023/09/30 10:32:50;;;;;;;11.73;6.20;;;;;;;18.20;100.00;102693.31;5094396;28;20036;-36
2023/09/30 10:35:19;;;;;;;13.55;7.05;;;;;;;18.22;100.00;102670.13;5094033;28;20439;-36
2023/09/30 10:37:45;;;;;;;13.20;6.68;;;;;;;18.32;100.00;102668.69;5093689;28;20034;-36
2023/09/30 10:40:25;;;;;;;;;;;;;;;18.48;100.00;102678.91;5094472;28;20384;-36
2023/09/30 10:42:52;;;;;;;13.38;7.15;;;;;;;18.37;100.00;102677.84;5091992;28;19915;-35
2023/09/30 10:45:45;;;;;;;11.00;6.70;;;;;;;18.39;100.00;102680.34;5093519;28;20059;-36
2023/09/30 10:48:26;;;;;;;10.18;6.47;;;;;;;18.43;100.00;102667.84;5093274;28;20024;-36
2023/09/30 10:50:55;;;;;;;11.23;6.93;;;;;;;18.46;100.00;102681.06;5093685;28;20465;-36
2023/09/30 10:53:20;;;;;;;10.05;6.47;;;;;;;18.49;100.00;102669.63;5094211;28;20111;-36
2023/09/30 10:55:46;;;;;;;;;;;;;;;18.69;100.00;102664.63;5093973;28;20028;-36
2023/09/30 10:58:14;;;;;;;;;;;;;;;18.69;100.00;102663.78;5094124;28;19920;-36
2023/09/30 11:00:51;;;;;;;;;;;;;;;18.70;100.00;102658.06;5093901;28;19941;-36
2023/09/30 11:03:19;;;;;;;;;;;;;;;18.74;100.00;102651.03;5094317;28;19999;-36
2023/09/30 11:05:47;;;;;;;;;;;;;;;18.78;100.00;102659.59;5093573;28;20007;-36
2023/09/30 11:08:14;;;;;;;;;;;;;;;18.86;100.00;102656.47;5093633;28;20447;-36
2023/09/30 11:10:46;;;;;;;;;;;;;;;18.96;100.00;102653.13;5093795;28;19966;-36
2023/09/30 11:13:12;;;;;;;;;;;;;;;19.08;100.00;102662.16;5094684;28;20292;-36
2023/09/30 11:15:37;;;;;;;;;;;;;;;19.21;100.00;102656.34;5093859;28;19938;-36